Akim Oda, Ghana

8:36 AM GMT on August 02, 2014 (GMT +0000)
Kotoka International (DGAA) Elev 226 ft | 5.61 °N, 0.17 °W | Change Station

Current weather conditions updated 36 minutes ago

Overcast
Overcast
75 °F
Feels Like 75 °F
N
13
Wind Variable Wind from SSW

Today is forecast to be nearly the same temperature as yesterday. Thunderstorms.

Today
High -- | Low -- °F
--% Chance of Precip.
Yesterday
High -- | Low -- °F
Precip. -- in
5:59 AM 6:21 PM
Waxing Crescent, 33% visible
Pressure 29.98 in
Visibility 6.2 miles
Clouds Mostly Cloudy 800 ft
Overcast 1600 ft
Dew Point 73 °F
Humidity 94%
Rainfall 0.00 in
Snow Depth Not available.
UV 1 out of 12
Pollen Not available.
Air Quality Not available.
Flu Activity Not available.
METAR DGAA 020800Z 21011KT 9999 BKN008 OVC016 24/23 Q1015 NOSIG

More Conditions Fewer Conditions

Pressure 29.98 in
Visibility 6.2 miles
Clouds Mostly Cloudy 800 ft
Overcast 1600 ft
Dew Point 73 °F
Humidity 94%
Rainfall 0.00 in
Snow Depth Not available.
UV 1 out of 12
Pollen Not available.
Air Quality Not available.
Flu Activity Not available.
METAR DGAA 020800Z 21011KT 9999 BKN008 OVC016 24/23 Q1015 NOSIG

More Conditions Fewer Conditions

10-Day Weather Forecast

Almanac

Astronomy

Aug. 02, 2014 Rise Set
Actual Time 5:59 AM GMT 6:21 PM GMT
Civil Twilight 5:37 AM GMT 6:43 PM GMT
Nautical Twilight 5:11 AM GMT 7:08 PM GMT
Astronomical Twilight 4:45 AM GMT 7:34 PM GMT
Moon 10:44 AM GMT 10:58 PM GMT
Length of Visible Light 13h 05m
Length of Day
12h 22m
Tomorrow will be 0m 15s shorter.
Waxing Crescent, 33% of the Moon is Illuminated
Today
Waxing Crescent
Aug 3
First Quarter
Aug 10
Full
Aug 17
Last Quarter
Aug 25
New

Yesterday's Extremes

Country Highs Country Lows

Community

WunderPhotos

Upload Photos

1,739,844 photos uploaded!

Nearby

Snow Depth

Not available.

Earthquake Activity

City Distance Mag. Time & Date
No recent earthquake activity has been reported nearby.
Minimum magnitude displayed is 2.5.

Coastal Water Temperatures

Place Temperature
No Stations Reporting

Nearby Weather Stations

There are no personal weather stations in this area.